Time;durP1;ratioP1;P1;durP2;ratioP2;P2;SDS_P1;SDS_P2;PMS_P1;PMS_P2;Temp;Humidity;BMP_temperature;BMP_pressure;BME280_temperature;BME280_humidity;BME280_pressure;Samples;Min_cycle;Max_cycle;Signal;HPM_P1;HPM_P2
2021/01/30 00:02:24;;;;;;;15.23;11.18;;;;;;;0.34;87.52;100172.47;4963261;28;20070;-61
2021/01/30 00:04:50;;;;;;;17.05;11.40;;;;;;;0.36;87.54;100166.25;5076531;28;20040;-62
2021/01/30 00:07:16;;;;;;;16.05;11.73;;;;;;;0.39;87.90;100172.22;5077228;28;21510;-61
2021/01/30 00:09:44;;;;;;;15.63;11.90;;;;;;;0.29;87.97;100174.50;5078711;28;20134;-61
2021/01/30 00:12:10;;;;;;;15.55;11.25;;;;;;;0.29;88.11;100176.31;5077388;28;20536;-62
2021/01/30 00:14:39;;;;;;;17.05;11.27;;;;;;;0.27;87.98;100178.22;5080345;28;20055;-61
2021/01/30 00:17:06;;;;;;;16.00;11.55;;;;;;;0.19;88.43;100175.13;5078412;28;20383;-62
2021/01/30 00:19:33;;;;;;;15.05;10.60;;;;;;;0.27;87.96;100194.09;5070963;28;20451;-62
2021/01/30 00:22:02;;;;;;;13.23;9.68;;;;;;;0.30;87.42;100197.41;5075867;28;20051;-61
2021/01/30 00:24:29;;;;;;;12.57;9.07;;;;;;;0.14;87.45;100207.16;5078564;28;20048;-61
2021/01/30 00:26:57;;;;;;;11.48;8.63;;;;;;;0.22;87.39;100199.66;5078806;28;20318;-61
2021/01/30 00:29:26;;;;;;;14.13;10.25;;;;;;;0.14;87.77;100196.56;5075799;28;20056;-61
2021/01/30 00:31:52;;;;;;;13.43;9.73;;;;;;;0.15;87.63;100198.28;5075756;28;20052;-61
2021/01/30 00:34:21;;;;;;;15.18;9.57;;;;;;;0.18;88.14;100198.09;5077246;28;20374;-61
2021/01/30 00:36:49;;;;;;;14.50;10.10;;;;;;;0.10;87.92;100201.16;5077826;28;20048;-61
2021/01/30 00:39:15;;;;;;;11.63;8.98;;;;;;;0.13;87.84;100198.38;5075241;28;20047;-62
2021/01/30 00:41:41;;;;;;;12.40;9.50;;;;;;;0.11;87.63;100202.88;5076631;28;20048;-63
2021/01/30 00:44:08;;;;;;;12.02;8.65;;;;;;;0.14;87.74;100204.50;5075981;28;20127;-61
2021/01/30 00:46:34;;;;;;;13.70;9.48;;;;;;;0.22;87.92;100197.00;5076413;28;20052;-61
2021/01/30 00:49:00;;;;;;;16.50;11.40;;;;;;;0.19;87.80;100205.09;5077467;28;20101;-61
2021/01/30 00:51:26;;;;;;;14.48;10.55;;;;;;;0.14;87.74;100201.88;5076242;28;20127;-61
2021/01/30 00:53:52;;;;;;;14.80;10.40;;;;;;;0.15;88.17;100208.88;5075880;28;20052;-62
2021/01/30 00:56:18;;;;;;;14.15;10.85;;;;;;;0.22;88.19;100204.94;5076437;28;20044;-61
2021/01/30 00:58:45;;;;;;;12.68;10.05;;;;;;;0.06;87.86;100204.06;5073041;28;20782;-62
2021/01/30 01:01:13;;;;;;;12.55;9.07;;;;;;;0.14;86.94;100207.16;5074525;28;20057;-64
2021/01/30 01:03:39;;;;;;;12.98;10.18;;;;;;;0.09;87.77;100209.19;5068972;28;20489;-62
2021/01/30 01:06:06;;;;;;;15.85;9.57;;;;;;;0.04;87.25;100205.97;5075042;28;20048;-62
2021/01/30 01:08:33;;;;;;;12.93;8.30;;;;;;;0.09;87.36;100204.78;5072746;28;20129;-62
2021/01/30 01:10:59;;;;;;;11.30;8.35;;;;;;;0.17;87.24;100213.13;5074596;28;20045;-63
2021/01/30 01:13:27;;;;;;;11.38;8.48;;;;;;;0.10;86.66;100226.78;5076380;28;20102;-62
2021/01/30 01:15:53;;;;;;;12.32;8.80;;;;;;;0.13;86.02;100214.25;5076449;28;20127;-61
2021/01/30 01:18:20;;;;;;;11.98;8.38;;;;;;;0.02;85.71;100218.44;5074304;28;20044;-61
2021/01/30 01:20:46;;;;;;;9.80;6.75;;;;;;;0.06;85.46;100222.59;5076484;28;20062;-63
2021/01/30 01:23:12;;;;;;;10.02;7.53;;;;;;;-0.03;84.49;100223.94;5077514;28;21353;-63
2021/01/30 01:25:38;;;;;;;8.50;6.75;;;;;;;0.04;84.56;100237.72;5068443;28;20049;-62
2021/01/30 01:28:05;;;;;;;10.77;8.38;;;;;;;0.06;85.05;100246.41;5076124;28;20100;-62
2021/01/30 01:30:31;;;;;;;10.70;8.23;;;;;;;0.08;85.17;100242.75;5072918;28;20041;-63
2021/01/30 01:32:57;;;;;;;11.45;9.38;;;;;;;-0.03;85.38;100247.75;5072939;28;20071;-62
2021/01/30 01:35:28;;;;;;;11.35;8.18;;;;;;;-0.06;85.78;100248.81;5075447;28;20044;-63
2021/01/30 01:37:55;;;;;;;13.13;9.25;;;;;;;-0.04;86.22;100240.78;5075141;28;20052;-63
2021/01/30 01:40:24;;;;;;;12.63;9.25;;;;;;;0.01;86.43;100243.16;5072052;28;20053;-62
2021/01/30 01:42:57;;;;;;;13.18;10.00;;;;;;;0.06;86.20;100252.56;5075707;28;20068;-62
2021/01/30 01:45:22;;;;;;;13.18;9.35;;;;;;;0.10;86.67;100256.72;5075581;28;20055;-62
2021/01/30 01:47:48;;;;;;;12.93;8.73;;;;;;;0.09;86.54;100254.16;5072922;28;20147;-62
2021/01/30 01:50:32;;;;;;;10.90;8.13;;;;;;;0.05;86.48;100260.59;5070467;28;20070;-63
2021/01/30 01:53:02;;;;;;;12.75;9.00;;;;;;;0.11;86.69;100254.97;5077086;28;20687;-62
2021/01/30 01:55:28;;;;;;;12.30;8.57;;;;;;;0.19;86.64;100246.59;5072389;28;20035;-63
2021/01/30 01:57:58;;;;;;;10.25;7.43;;;;;;;0.07;86.25;100254.25;5072763;28;20110;-64
2021/01/30 02:00:25;;;;;;;9.27;6.88;;;;;;;0.13;85.32;100263.66;5071395;28;20387;-62
2021/01/30 02:02:54;;;;;;;7.38;6.05;;;;;;;0.07;84.97;100269.28;5070426;28;20063;-62
2021/01/30 02:05:24;;;;;;;6.88;5.40;;;;;;;0.04;84.68;100266.81;5076319;28;20043;-62
2021/01/30 02:10:49;;;;;;;9.50;6.95;;;;;;;0.03;85.02;100273.91;5034187;22;20052;-62
2021/01/30 02:13:19;;;;;;;7.63;6.13;;;;;;;0.08;85.17;100271.84;5064807;28;20534;-62
2021/01/30 02:15:46;;;;;;;;;;;;;;;0.03;85.33;100267.75;5065272;28;20048;-63
2021/01/30 02:18:24;;;;;;;6.95;5.35;;;;;;;0.04;85.46;100253.59;5063159;28;19950;-64
2021/01/30 02:24:16;;;;;;;8.10;5.80;;;;;;;0.13;84.80;100256.59;5053896;23;20058;-62
2021/01/30 02:27:04;;;;;;;7.63;5.68;;;;;;;0.03;85.10;100246.56;5037019;28;20049;-62
2021/01/30 02:29:59;;;;;;;7.25;5.70;;;;;;;0.10;84.43;100237.38;5045251;28;20473;-63
2021/01/30 02:32:42;;;;;;;7.90;5.95;;;;;;;0.05;84.96;100247.38;5052660;28;20410;-63
2021/01/30 02:35:22;;;;;;;8.07;6.32;;;;;;;-0.02;85.00;100258.25;5056383;28;20426;-63
2021/01/30 02:37:56;;;;;;;7.80;5.75;;;;;;;0.01;84.74;100257.25;5057103;28;20045;-62
2021/01/30 02:40:24;;;;;;;9.68;6.32;;;;;;;-0.03;84.80;100259.22;5055366;28;20060;-63
2021/01/30 02:42:56;;;;;;;8.00;6.25;;;;;;;0.01;85.28;100259.03;5046031;28;20082;-62
2021/01/30 02:45:24;;;;;;;7.30;5.88;;;;;;;0.04;85.11;100265.00;5035499;28;20046;-63
2021/01/30 02:47:57;;;;;;;7.47;5.68;;;;;;;0.03;85.01;100258.03;5030999;28;20052;-63
2021/01/30 02:50:28;;;;;;;8.57;5.88;;;;;;;0.07;85.10;100266.63;5033556;28;20045;-63
2021/01/30 02:52:59;;;;;;;9.32;5.40;;;;;;;0.09;85.38;100268.28;5033906;28;20114;-64
2021/01/30 02:55:26;;;;;;;7.75;5.95;;;;;;;-0.07;85.12;100262.09;5034084;28;20065;-62
2021/01/30 02:57:54;;;;;;;7.55;5.18;;;;;;;-0.15;85.01;100256.38;5034448;28;20111;-62
2021/01/30 03:00:24;;;;;;;8.70;5.65;;;;;;;-0.15;85.82;100259.00;5032942;28;20049;-62
2021/01/30 03:02:50;;;;;;;8.43;5.65;;;;;;;-0.24;86.09;100260.34;5029772;28;20532;-62
2021/01/30 03:05:17;;;;;;;8.77;5.15;;;;;;;-0.43;86.24;100260.47;5021042;28;20056;-62
2021/01/30 03:08:16;;;;;;;7.85;5.10;;;;;;;-0.43;86.38;100281.63;5072409;23;20056;-62
2021/01/30 03:10:51;;;;;;;8.90;5.68;;;;;;;-0.50;86.55;100275.81;4997808;28;20050;-62
2021/01/30 03:13:26;;;;;;;7.97;5.97;;;;;;;-0.57;87.28;100282.34;4993818;28;20092;-62
2021/01/30 03:15:56;;;;;;;8.90;6.32;;;;;;;-0.59;87.46;100278.91;4996693;28;20463;-62
2021/01/30 03:18:27;;;;;;;10.60;5.97;;;;;;;-0.62;87.91;100287.00;4998727;28;20050;-62
2021/01/30 03:20:53;;;;;;;9.20;5.93;;;;;;;-0.69;87.95;100288.25;5003459;28;20058;-62
2021/01/30 03:23:20;;;;;;;11.43;6.20;;;;;;;-0.74;88.46;100297.28;5002252;28;20495;-63
2021/01/30 03:25:48;;;;;;;10.50;6.10;;;;;;;-0.72;88.57;100308.63;5003935;28;20097;-63
2021/01/30 03:28:16;;;;;;;7.57;5.70;;;;;;;-0.64;88.81;100302.09;5004696;28;20111;-62
2021/01/30 03:30:43;;;;;;;9.75;6.05;;;;;;;-0.67;88.55;100308.38;5001984;28;20050;-62
2021/01/30 03:33:10;;;;;;;9.48;6.20;;;;;;;-0.78;89.10;100313.34;5003548;28;20049;-62
2021/01/30 03:35:36;;;;;;;10.43;6.22;;;;;;;-0.88;89.39;100320.91;5003184;28;20057;-63
2021/01/30 03:38:02;;;;;;;10.00;6.03;;;;;;;-0.89;89.69;100312.09;5003836;28;20042;-63
2021/01/30 03:40:28;;;;;;;9.23;6.40;;;;;;;-0.89;90.02;100316.53;5002446;28;20046;-62
2021/01/30 03:42:55;;;;;;;9.38;6.55;;;;;;;-0.88;90.12;100323.53;5004167;28;20054;-61
2021/01/30 03:45:25;;;;;;;10.23;6.43;;;;;;;-0.84;90.17;100325.13;5003098;28;20456;-62
2021/01/30 03:47:51;;;;;;;9.73;6.70;;;;;;;-0.73;90.58;100314.84;5003319;28;20054;-62
2021/01/30 03:50:17;;;;;;;9.85;6.70;;;;;;;-0.66;90.78;100317.16;5002591;28;20054;-63
2021/01/30 03:52:43;;;;;;;10.32;7.45;;;;;;;-0.65;90.71;100316.25;5004612;28;20069;-62
2021/01/30 03:55:10;;;;;;;9.55;6.72;;;;;;;-0.55;90.65;100318.31;5003181;28;20550;-63
2021/01/30 03:57:37;;;;;;;10.88;6.20;;;;;;;-0.53;90.61;100318.25;5002043;28;20499;-64
2021/01/30 04:00:08;;;;;;;8.82;6.80;;;;;;;-0.39;90.47;100317.56;5002948;28;20455;-62
2021/01/30 04:02:34;;;;;;;10.32;7.10;;;;;;;-0.45;90.87;100324.00;5002949;28;20411;-62
2021/01/30 04:05:11;;;;;;;9.98;6.63;;;;;;;-0.34;90.73;100315.50;5038249;22;20080;-62
2021/01/30 04:07:38;;;;;;;9.45;6.78;;;;;;;-0.27;90.42;100316.91;5027834;28;20060;-62
2021/01/30 04:10:05;;;;;;;9.98;6.22;;;;;;;-0.32;89.92;100321.59;5028516;28;20076;-62
2021/01/30 04:12:31;;;;;;;9.68;6.07;;;;;;;-0.29;89.96;100320.59;5029296;28;20383;-64
2021/01/30 04:14:57;;;;;;;10.05;6.47;;;;;;;-0.21;90.01;100328.94;5031568;28;20095;-61
2021/01/30 04:17:24;;;;;;;9.15;6.13;;;;;;;-0.21;90.11;100326.31;5028942;28;20046;-63
2021/01/30 04:19:50;;;;;;;9.82;6.78;;;;;;;-0.30;89.88;100329.44;5028701;28;20061;-62
2021/01/30 04:22:16;;;;;;;10.82;6.75;;;;;;;-0.22;89.71;100332.53;5028602;28;20087;-64
2021/01/30 04:24:44;;;;;;;10.45;6.00;;;;;;;-0.27;89.10;100329.28;5031692;28;20055;-62
2021/01/30 04:27:11;;;;;;;8.95;6.22;;;;;;;-0.38;89.67;100332.50;5019864;28;20061;-62
2021/01/30 04:29:37;;;;;;;10.00;6.30;;;;;;;-0.23;89.73;100325.53;5021298;28;20046;-62
2021/01/30 04:32:03;;;;;;;11.95;7.47;;;;;;;-0.14;89.57;100338.28;5016016;28;20391;-62
2021/01/30 04:34:29;;;;;;;9.30;6.20;;;;;;;-0.15;89.47;100333.06;5028550;28;20093;-62
2021/01/30 04:36:55;;;;;;;10.25;6.30;;;;;;;-0.04;88.96;100333.38;5029251;28;20371;-62
2021/01/30 04:39:21;;;;;;;9.75;6.32;;;;;;;-0.06;89.03;100328.16;5019328;28;20079;-62
2021/01/30 04:41:58;;;;;;;10.63;6.43;;;;;;;-0.14;88.86;100330.34;5027486;28;20060;-62
2021/01/30 04:44:29;;;;;;;9.98;6.13;;;;;;;-0.21;88.34;100327.19;5028968;28;20053;-61
2021/01/30 04:47:07;;;;;;;9.07;5.63;;;;;;;-0.15;88.65;100322.50;5029769;28;20072;-62
2021/01/30 04:49:44;;;;;;;9.63;6.22;;;;;;;-0.14;88.47;100322.41;5026481;28;20395;-62
2021/01/30 04:52:28;;;;;;;10.52;6.43;;;;;;;-0.18;88.53;100323.50;5028307;28;20057;-61
2021/01/30 04:55:07;;;;;;;8.68;5.88;;;;;;;-0.07;87.99;100330.91;5029808;28;20049;-62
2021/01/30 04:57:40;;;;;;;9.52;6.07;;;;;;;-0.09;88.02;100319.50;5027063;28;20053;-62
2021/01/30 05:00:32;;;;;;;7.90;4.90;;;;;;;-0.26;86.81;100315.13;5025157;28;20128;-62
2021/01/30 05:03:19;;;;;;;7.40;4.75;;;;;;;-0.23;86.69;100309.69;5015845;28;20064;-62
2021/01/30 05:05:49;;;;;;;8.52;5.05;;;;;;;-0.29;86.50;100312.66;5028994;28;20069;-62
2021/01/30 05:08:26;;;;;;;7.20;4.93;;;;;;;-0.27;85.73;100310.78;5021244;28;20087;-62
2021/01/30 05:10:56;;;;;;;8.00;4.68;;;;;;;-0.21;85.16;100302.50;5028749;28;20058;-62
2021/01/30 05:13:28;;;;;;;7.38;4.90;;;;;;;-0.27;85.48;100303.69;5028206;28;20045;-61
2021/01/30 05:15:58;;;;;;;6.95;4.47;;;;;;;-0.25;85.68;100301.81;5029617;28;20100;-62
2021/01/30 05:18:29;;;;;;;8.75;5.45;;;;;;;-0.19;85.70;100303.31;5026822;28;20049;-62
2021/01/30 05:21:03;;;;;;;7.53;4.82;;;;;;;-0.24;85.40;100295.59;5028072;28;20041;-62
2021/01/30 05:23:30;;;;;;;7.88;4.88;;;;;;;-0.24;85.70;100297.38;5028039;28;20057;-62
2021/01/30 05:26:04;;;;;;;7.25;4.80;;;;;;;-0.18;85.75;100297.06;5027252;28;20048;-63
2021/01/30 05:28:39;;;;;;;8.85;5.25;;;;;;;-0.14;85.93;100303.91;5093014;22;20117;-63
2021/01/30 05:31:18;;;;;;;7.22;4.70;;;;;;;-0.18;86.08;100297.06;5075566;28;20048;-63
2021/01/30 05:34:00;;;;;;;8.57;5.13;;;;;;;-0.09;85.85;100290.41;5071682;28;20052;-62
2021/01/30 05:36:31;;;;;;;8.00;5.43;;;;;;;-0.11;86.24;100287.84;5071119;28;20662;-62
2021/01/30 05:39:07;;;;;;;7.88;5.13;;;;;;;-0.10;86.43;100279.00;5073329;28;20047;-62
2021/01/30 05:41:45;;;;;;;8.65;5.35;;;;;;;-0.22;86.24;100276.97;5075547;28;20052;-62
2021/01/30 05:44:15;;;;;;;8.18;5.45;;;;;;;-0.16;86.80;100274.03;5073582;28;20047;-62
2021/01/30 05:46:41;;;;;;;8.18;4.72;;;;;;;-0.19;86.34;100274.22;5073090;28;20068;-62
2021/01/30 05:49:12;;;;;;;9.45;5.97;;;;;;;-0.23;86.49;100280.59;5073847;28;20071;-62
2021/01/30 05:51:43;;;;;;;7.88;4.88;;;;;;;-0.23;86.65;100278.78;5075491;28;20060;-61
2021/01/30 05:54:09;;;;;;;8.68;5.13;;;;;;;-0.28;86.44;100293.19;5076306;28;20048;-61
2021/01/30 05:56:39;;;;;;;8.60;5.47;;;;;;;-0.25;86.30;100288.59;5076067;28;20066;-62
2021/01/30 05:59:08;;;;;;;7.85;5.47;;;;;;;-0.10;86.18;100278.16;5070286;28;20450;-62
2021/01/30 06:01:34;;;;;;;8.82;5.47;;;;;;;-0.17;86.23;100282.91;5073993;28;20056;-62
2021/01/30 06:04:02;;;;;;;10.05;5.43;;;;;;;-0.12;86.34;100278.19;5075963;28;20113;-62
2021/01/30 06:06:33;;;;;;;9.50;5.32;;;;;;;-0.09;86.27;100275.41;5072552;28;20056;-62
2021/01/30 06:09:04;;;;;;;8.23;5.63;;;;;;;-0.25;86.10;100287.72;5070889;28;20044;-62
2021/01/30 06:11:41;;;;;;;8.32;4.82;;;;;;;-0.30;85.96;100292.41;5074001;28;20045;-61
2021/01/30 06:14:08;;;;;;;7.68;5.45;;;;;;;-0.25;86.19;100296.53;5075630;28;20413;-63
2021/01/30 06:16:36;;;;;;;8.00;5.13;;;;;;;-0.36;85.89;100294.44;5075970;28;20121;-63
2021/01/30 06:19:10;;;;;;;7.95;4.90;;;;;;;-0.24;85.80;100292.09;5070447;28;20044;-62
2021/01/30 06:21:36;;;;;;;8.15;5.18;;;;;;;-0.17;85.76;100285.53;5072488;28;20048;-64
2021/01/30 06:24:05;;;;;;;10.13;5.07;;;;;;;-0.22;85.61;100282.28;5074834;28;20060;-63
2021/01/30 06:26:37;;;;;;;7.75;4.93;;;;;;;-0.20;86.03;100293.66;5074800;28;20545;-63
2021/01/30 06:29:14;;;;;;;9.32;5.43;;;;;;;-0.14;85.63;100289.81;5072586;28;20051;-62
2021/01/30 06:31:40;;;;;;;9.43;5.60;;;;;;;-0.23;85.51;100293.81;5075679;28;20382;-61
2021/01/30 06:34:30;;;;;;;9.63;5.80;;;;;;;-0.25;85.94;100295.66;5074417;28;20468;-63
2021/01/30 06:36:59;;;;;;;8.63;6.25;;;;;;;-0.30;85.83;100298.56;5073312;28;20041;-62
2021/01/30 06:39:32;;;;;;;9.57;6.50;;;;;;;-0.27;85.77;100297.53;5074679;28;20476;-63
2021/01/30 06:42:06;;;;;;;8.07;5.95;;;;;;;-0.29;85.87;100305.56;5074413;28;20056;-61
2021/01/30 06:44:33;;;;;;;9.63;6.15;;;;;;;-0.32;85.94;100304.84;5074761;28;20045;-62
2021/01/30 06:47:16;;;;;;;10.07;5.60;;;;;;;-0.31;86.55;100302.16;5073711;28;20052;-63
2021/01/30 06:49:45;;;;;;;9.80;6.28;;;;;;;-0.29;86.12;100302.91;5073287;28;20055;-63
2021/01/30 06:52:15;;;;;;;10.73;6.63;;;;;;;-0.30;86.10;100300.34;5074358;28;20070;-63
2021/01/30 06:54:42;;;;;;;10.40;6.45;;;;;;;-0.27;85.61;100303.69;5080484;28;20059;-64
2021/01/30 06:57:19;;;;;;;10.13;6.25;;;;;;;-0.27;85.76;100300.19;5077523;28;20056;-62
2021/01/30 06:59:55;;;;;;;8.23;5.65;;;;;;;-0.26;85.32;100300.09;5076294;28;20102;-62
2021/01/30 07:02:26;;;;;;;9.02;5.53;;;;;;;-0.29;85.52;100299.44;5077148;28;20048;-62
2021/01/30 07:05:05;;;;;;;9.18;5.75;;;;;;;-0.23;85.42;100292.00;5070962;28;20041;-64
2021/01/30 07:07:38;;;;;;;10.52;5.95;;;;;;;-0.23;85.73;100296.47;5080759;28;20052;-62
2021/01/30 07:10:16;;;;;;;11.18;6.68;;;;;;;-0.21;85.91;100307.78;5075943;28;20048;-62
2021/01/30 07:13:03;;;;;;;9.98;6.40;;;;;;;-0.21;85.56;100311.31;5078832;28;20048;-62
2021/01/30 07:15:32;;;;;;;9.02;6.40;;;;;;;-0.13;85.82;100299.44;5078815;28;20040;-62
2021/01/30 07:18:23;;;;;;;9.23;5.85;;;;;;;-0.12;85.69;100306.47;5077932;28;20513;-62
2021/01/30 07:21:02;;;;;;;9.85;6.10;;;;;;;-0.17;85.22;100295.28;5077637;28;20097;-61
2021/01/30 07:23:34;;;;;;;8.68;5.75;;;;;;;-0.19;86.01;100305.94;5076694;28;20055;-62
2021/01/30 07:26:04;;;;;;;9.07;5.80;;;;;;;-0.23;85.59;100302.59;5078828;28;20464;-62
2021/01/30 07:28:36;;;;;;;9.93;5.97;;;;;;;-0.23;85.39;100309.69;5077765;28;20044;-61
2021/01/30 07:31:08;;;;;;;9.73;5.95;;;;;;;-0.21;85.40;100307.78;5078695;28;20044;-62
2021/01/30 07:36:22;;;;;;;9.93;5.88;;;;;;;-0.16;85.00;100316.34;5030984;22;20444;-63
2021/01/30 07:38:54;;;;;;;9.60;5.88;;;;;;;-0.20;84.51;100310.34;5077527;28;20048;-61
2021/01/30 07:41:31;;;;;;;8.07;5.28;;;;;;;-0.10;84.69;100308.09;5079655;28;20044;-61
2021/01/30 07:44:04;;;;;;;9.13;5.97;;;;;;;-0.07;85.05;100307.09;5078554;28;20128;-62
2021/01/30 07:46:35;;;;;;;11.40;6.43;;;;;;;-0.12;85.00;100317.03;5075870;28;20094;-62
2021/01/30 07:49:07;;;;;;;9.02;5.97;;;;;;;-0.14;85.55;100313.63;5075337;28;20057;-62
2021/01/30 07:51:37;;;;;;;10.30;5.68;;;;;;;-0.13;85.35;100310.91;5077153;28;20511;-62
2021/01/30 07:54:04;;;;;;;9.18;5.60;;;;;;;-0.14;85.21;100316.28;5078387;28;20047;-62
2021/01/30 07:56:47;;;;;;;11.45;6.07;;;;;;;-0.12;85.04;100325.81;5074314;28;20040;-61
2021/01/30 07:59:34;;;;;;;9.77;6.05;;;;;;;-0.12;85.41;100317.88;5074716;28;20052;-61
2021/01/30 08:02:33;;;;;;;9.43;5.82;;;;;;;-0.12;85.04;100319.69;5075363;28;20053;-62
2021/01/30 08:05:15;;;;;;;9.27;5.72;;;;;;;-0.07;85.46;100315.88;5075798;28;20501;-62
2021/01/30 08:07:46;;;;;;;9.45;6.03;;;;;;;-0.01;84.63;100312.03;5079033;28;20057;-63
2021/01/30 08:10:22;;;;;;;10.75;6.25;;;;;;;-0.05;85.04;100308.69;5077259;28;20053;-62
2021/01/30 08:13:01;;;;;;;10.02;6.07;;;;;;;0.02;84.94;100305.75;5079457;28;20386;-63
2021/01/30 08:15:30;;;;;;;9.75;6.03;;;;;;;0.05;84.50;100303.78;5072686;28;20044;-61
2021/01/30 08:18:06;;;;;;;8.73;5.78;;;;;;;0.07;84.96;100301.03;5074072;28;20083;-62
2021/01/30 08:20:39;;;;;;;12.80;7.50;;;;;;;-0.03;85.63;100298.03;5072602;28;20043;-63
2021/01/30 08:23:10;;;;;;;10.43;7.32;;;;;;;0.05;85.01;100284.41;5080057;28;20105;-62
2021/01/30 08:25:45;;;;;;;12.07;7.20;;;;;;;0.11;84.76;100292.84;5076190;28;20943;-62
2021/01/30 08:28:17;;;;;;;10.55;7.25;;;;;;;0.09;84.65;100289.44;5077680;28;20132;-62
2021/01/30 08:30:44;;;;;;;11.52;6.75;;;;;;;0.17;84.87;100287.22;5078734;28;20106;-64
2021/01/30 08:33:11;;;;;;;11.20;7.43;;;;;;;0.15;84.68;100288.25;5077135;28;20498;-62
2021/01/30 08:35:45;;;;;;;12.30;7.60;;;;;;;0.20;84.35;100286.19;5079567;28;20421;-63
2021/01/30 08:38:29;;;;;;;10.88;7.13;;;;;;;0.25;84.12;100283.28;5077512;28;20044;-62
2021/01/30 08:40:57;;;;;;;9.85;6.93;;;;;;;0.21;84.01;100279.97;5078109;28;20048;-62
2021/01/30 08:43:36;;;;;;;10.48;6.18;;;;;;;0.32;83.83;100280.25;5074863;28;20393;-62
2021/01/30 08:46:21;;;;;;;13.10;7.40;;;;;;;0.27;83.66;100281.44;5076915;28;20048;-62
2021/01/30 08:49:01;;;;;;;9.88;6.13;;;;;;;0.31;83.13;100281.19;5078921;28;20063;-61
2021/01/30 08:51:28;;;;;;;9.93;6.40;;;;;;;0.32;83.45;100272.31;5078644;28;20041;-62
2021/01/30 08:53:53;;;;;;;8.35;5.72;;;;;;;0.36;83.18;100275.63;5078057;28;20405;-62
2021/01/30 08:56:45;;;;;;;9.57;6.15;;;;;;;0.37;83.23;100284.41;5077436;28;20056;-62
2021/01/30 08:59:43;;;;;;;11.70;6.55;;;;;;;0.37;83.01;100292.34;5070433;28;20056;-63
2021/01/30 09:02:11;;;;;;;8.68;5.75;;;;;;;0.32;83.25;100289.97;5076473;28;20389;-62
2021/01/30 09:04:44;;;;;;;8.50;6.07;;;;;;;0.42;83.81;100287.69;5079709;28;20044;-63
2021/01/30 09:07:36;;;;;;;8.98;5.68;;;;;;;0.44;83.22;100285.78;5074236;28;20053;-62
2021/01/30 09:10:29;;;;;;;9.90;6.55;;;;;;;0.37;83.44;100276.47;5079103;28;20056;-61
2021/01/30 09:12:57;;;;;;;11.93;6.82;;;;;;;0.34;83.46;100277.53;5077738;28;20060;-63
2021/01/30 09:16:00;;;;;;;9.73;6.80;;;;;;;0.34;83.56;100283.66;5077249;28;20063;-61
2021/01/30 09:18:51;;;;;;;10.60;6.78;;;;;;;0.33;83.53;100279.28;5077932;28;20048;-62
2021/01/30 09:21:25;;;;;;;9.50;5.95;;;;;;;0.45;82.74;100274.25;5074244;28;20056;-64
2021/01/30 09:24:02;;;;;;;9.55;6.18;;;;;;;0.51;82.83;100266.81;5079381;28;20048;-62
2021/01/30 09:26:35;;;;;;;9.63;6.28;;;;;;;0.50;83.56;100283.66;5075635;28;20155;-62
2021/01/30 09:29:03;;;;;;;10.38;6.05;;;;;;;0.52;83.18;100278.28;5075022;28;20405;-61
2021/01/30 09:31:31;;;;;;;11.95;7.45;;;;;;;0.58;83.21;100269.97;5077808;28;20049;-62
2021/01/30 09:34:03;;;;;;;9.63;6.28;;;;;;;0.66;82.52;100273.06;5076338;28;20060;-62
2021/01/30 09:36:34;;;;;;;10.40;6.45;;;;;;;0.73;82.10;100267.41;5078162;28;20071;-61
2021/01/30 09:39:00;;;;;;;11.30;6.38;;;;;;;0.75;81.49;100261.09;5074140;28;20040;-62
2021/01/30 09:41:28;;;;;;;9.55;6.55;;;;;;;0.65;82.36;100271.34;5071830;28;20516;-61
2021/01/30 09:44:06;;;;;;;10.65;6.35;;;;;;;0.80;82.15;100266.13;5076349;28;20053;-62
2021/01/30 09:46:37;;;;;;;9.27;6.10;;;;;;;0.83;82.45;100258.00;5076869;28;20114;-62
2021/01/30 09:49:06;;;;;;;10.13;6.68;;;;;;;0.86;82.93;100257.81;5074176;28;20044;-61
2021/01/30 09:51:33;;;;;;;10.70;6.80;;;;;;;0.87;81.85;100264.81;5076595;28;20059;-62
2021/01/30 09:54:00;;;;;;;8.52;5.50;;;;;;;0.96;82.17;100261.63;5076323;28;20071;-62
2021/01/30 09:56:33;;;;;;;9.30;6.28;;;;;;;0.86;80.80;100263.09;5039562;28;20557;-62
2021/01/30 09:59:00;;;;;;;8.75;5.93;;;;;;;1.00;81.91;100265.81;5040625;28;20451;-62
2021/01/30 10:01:31;;;;;;;8.25;5.57;;;;;;;1.18;80.50;100268.34;5075084;28;20129;-62
2021/01/30 10:04:00;;;;;;;8.85;5.43;;;;;;;1.22;81.61;100267.19;5041690;28;20121;-63
2021/01/30 10:06:29;;;;;;;8.05;5.35;;;;;;;1.26;80.89;100263.41;5077438;28;20131;-62
2021/01/30 10:09:07;;;;;;;10.57;5.93;;;;;;;1.16;80.69;100271.09;5078906;28;20048;-63
2021/01/30 10:11:36;;;;;;;8.57;6.15;;;;;;;1.23;80.43;100272.41;5077297;28;20469;-62
2021/01/30 10:14:02;;;;;;;7.80;5.35;;;;;;;1.29;80.16;100265.03;5077481;28;20044;-64
2021/01/30 10:16:28;;;;;;;9.23;5.30;;;;;;;1.11;79.75;100277.59;5077174;28;20048;-63
2021/01/30 10:18:58;;;;;;;6.90;4.90;;;;;;;1.05;80.33;100268.19;5077782;28;20409;-63
2021/01/30 10:21:30;;;;;;;8.23;5.50;;;;;;;0.85;79.66;100269.34;5077037;28;20051;-64
2021/01/30 10:23:56;;;;;;;7.60;5.22;;;;;;;0.88;80.62;100269.16;5076990;28;20092;-63
2021/01/30 10:26:24;;;;;;;10.02;6.05;;;;;;;0.76;80.35;100269.88;5033397;28;20084;-62
2021/01/30 10:28:54;;;;;;;9.67;5.80;;;;;;;0.89;80.05;100270.88;4977574;28;20080;-62
2021/01/30 10:31:24;;;;;;;7.95;5.13;;;;;;;0.99;80.12;100271.22;4976930;28;20303;-62
2021/01/30 10:34:01;;;;;;;7.57;5.13;;;;;;;1.01;79.60;100275.44;4980751;28;21061;-63
2021/01/30 10:36:30;;;;;;;9.07;5.03;;;;;;;1.12;79.86;100260.72;5065755;22;20109;-63
2021/01/30 10:39:01;;;;;;;7.70;5.38;;;;;;;1.12;79.30;100260.72;4955843;28;20064;-62
2021/01/30 10:41:28;;;;;;;8.70;5.80;;;;;;;1.15;79.10;100248.16;4955256;28;20045;-63
2021/01/30 10:44:02;;;;;;;8.75;5.75;;;;;;;1.02;79.11;100245.38;4956415;28;20103;-62
2021/01/30 10:46:34;;;;;;;9.05;6.05;;;;;;;1.06;79.36;100246.06;4958090;28;20052;-64
2021/01/30 10:49:06;;;;;;;8.05;5.13;;;;;;;1.07;78.94;100252.19;4955155;28;20098;-63
2021/01/30 10:51:36;;;;;;;9.35;6.22;;;;;;;1.08;79.83;100253.91;4954824;28;20147;-63
2021/01/30 10:54:23;;;;;;;7.85;5.07;;;;;;;1.31;79.25;100250.75;4956004;28;20053;-63
2021/01/30 10:57:25;;;;;;;9.10;5.72;;;;;;;1.02;79.46;100245.38;4982559;28;20095;-62
2021/01/30 10:59:54;;;;;;;7.65;5.22;;;;;;;1.01;80.78;100251.59;4961804;28;20053;-62
2021/01/30 11:02:37;;;;;;;7.47;4.68;;;;;;;0.88;79.64;100247.97;4995308;28;20053;-62
2021/01/30 11:05:10;;;;;;;9.02;5.68;;;;;;;0.85;79.79;100246.38;5044138;28;20049;-62
2021/01/30 11:07:43;;;;;;;9.88;5.80;;;;;;;0.83;79.96;100248.25;5043074;28;20045;-62
2021/01/30 11:10:21;;;;;;;8.35;5.25;;;;;;;0.94;80.56;100255.56;5043953;28;20057;-63
2021/01/30 11:12:48;;;;;;;9.20;5.87;;;;;;;0.96;80.40;100251.03;5044919;28;20469;-63
2021/01/30 11:15:18;;;;;;;9.10;5.72;;;;;;;0.97;79.80;100260.69;5043475;28;20295;-62
2021/01/30 11:17:45;;;;;;;9.95;5.53;;;;;;;0.96;79.30;100261.63;5046161;28;20053;-62
2021/01/30 11:20:12;;;;;;;9.15;5.47;;;;;;;1.05;79.91;100263.75;5043733;28;20445;-63
2021/01/30 11:22:49;;;;;;;8.23;5.32;;;;;;;1.10;79.80;100265.28;5045044;28;20494;-62
2021/01/30 11:25:16;;;;;;;9.65;5.80;;;;;;;1.04;80.03;100262.03;5043528;28;20390;-62
2021/01/30 11:27:45;;;;;;;9.55;5.60;;;;;;;1.08;80.35;100261.88;5044727;28;20041;-62
2021/01/30 11:30:16;;;;;;;10.30;6.00;;;;;;;1.14;79.71;100256.19;5045938;28;20136;-62
2021/01/30 11:32:43;;;;;;;9.07;5.63;;;;;;;1.43;79.68;100253.59;5046672;28;20057;-62
2021/01/30 11:35:14;;;;;;;9.20;6.07;;;;;;;1.30;79.10;100250.84;5046546;28;20045;-62
2021/01/30 11:37:40;;;;;;;8.75;5.32;;;;;;;1.38;79.40;100244.13;5043450;28;20061;-64
2021/01/30 11:40:09;;;;;;;8.70;5.50;;;;;;;1.70;79.53;100240.47;5041407;28;20489;-62
2021/01/30 11:42:36;;;;;;;10.00;6.13;;;;;;;1.64;78.72;100240.84;5048413;28;20107;-62
2021/01/30 11:45:03;;;;;;;8.45;5.30;;;;;;;1.87;78.31;100231.44;5045185;28;20440;-62
2021/01/30 11:47:29;;;;;;;8.20;6.00;;;;;;;1.88;77.97;100225.19;5046265;28;20052;-63
2021/01/30 11:49:55;;;;;;;8.13;5.43;;;;;;;1.75;77.10;100231.28;5045205;28;20111;-62
2021/01/30 11:52:24;;;;;;;8.85;5.63;;;;;;;1.72;77.43;100218.22;5046589;28;20049;-63
2021/01/30 11:54:50;;;;;;;8.65;5.88;;;;;;;1.66;78.01;100218.56;5043478;28;20198;-62
2021/01/30 11:57:17;;;;;;;9.60;5.68;;;;;;;1.48;77.98;100211.75;5042024;28;20544;-63